createdAt,value
2019-02-10T00:00:07.588Z,92.80
2019-02-10T00:00:35.005Z,92.70
2019-02-10T00:01:05.145Z,92.80
2019-02-10T00:01:29.585Z,92.90
2019-02-10T00:01:52.485Z,92.80
2019-02-10T00:02:15.305Z,92.60
2019-02-10T00:02:38.125Z,92.60
2019-02-10T00:03:01.085Z,92.70
2019-02-10T00:03:23.828Z,92.60
2019-02-10T00:03:46.543Z,92.50
2019-02-10T00:04:09.385Z,92.40
2019-02-10T00:04:32.366Z,92.70
2019-02-10T00:04:55.445Z,92.90
2019-02-10T00:05:18.247Z,92.80
2019-02-10T00:05:41.064Z,92.70
2019-02-10T00:06:03.885Z,92.80
2019-02-10T00:06:26.665Z,92.70
2019-02-10T00:06:49.504Z,92.70
2019-02-10T00:07:12.346Z,92.60
2019-02-10T00:07:35.404Z,92.60
2019-02-10T00:07:58.185Z,92.70
2019-02-10T00:08:20.985Z,92.70
2019-02-10T00:08:46.246Z,92.70
2019-02-10T00:09:09.145Z,92.70
2019-02-10T00:09:32.027Z,92.70
2019-02-10T00:09:54.944Z,92.60
2019-02-10T00:10:20.611Z,92.50
2019-02-10T00:10:43.485Z,92.50
2019-02-10T00:11:06.747Z,92.60
2019-02-10T00:11:29.506Z,92.50
2019-02-10T00:11:52.305Z,92.40
2019-02-10T00:12:15.143Z,92.40
2019-02-10T00:12:37.985Z,92.30
2019-02-10T00:13:00.885Z,92.40
2019-02-10T00:13:23.685Z,92.30
2019-02-10T00:13:46.627Z,92.30
2019-02-10T00:14:09.468Z,92.30
2019-02-10T00:14:32.405Z,92.30
2019-02-10T00:14:55.145Z,92.20
2019-02-10T00:15:18.209Z,92.20
2019-02-10T00:15:40.985Z,92.00
2019-02-10T00:16:03.767Z,92.40
2019-02-10T00:16:26.605Z,92.30
2019-02-10T00:16:49.386Z,92.20
2019-02-10T00:17:12.144Z,92.30
2019-02-10T00:17:35.023Z,92.50
2019-02-10T00:17:58.125Z,92.50
2019-02-10T00:18:20.864Z,92.30
2019-02-10T00:18:43.686Z,92.00
2019-02-10T00:19:06.545Z,91.90
2019-02-10T00:19:29.464Z,91.80
2019-02-10T00:19:52.221Z,91.70
2019-02-10T00:20:15.585Z,91.40
2019-02-10T00:20:38.465Z,91.30
2019-02-10T00:21:01.365Z,91.40
2019-02-10T00:21:24.223Z,91.40
2019-02-10T00:21:47.106Z,91.30
2019-02-10T00:22:09.823Z,91.30
2019-02-10T00:22:32.625Z,91.30
2019-02-10T00:22:55.744Z,91.30
2019-02-10T00:23:18.843Z,91.30
2019-02-10T00:23:41.685Z,91.20
2019-02-10T00:24:04.628Z,91.20
2019-02-10T00:24:27.645Z,91.30
2019-02-10T00:24:50.405Z,91.30
2019-02-10T00:25:13.245Z,91.20
2019-02-10T00:25:36.032Z,91.30
2019-02-10T00:25:58.905Z,91.40
2019-02-10T00:26:21.845Z,91.40
2019-02-10T00:26:44.585Z,91.50
2019-02-10T00:27:07.504Z,91.60
2019-02-10T00:27:30.345Z,91.60
2019-02-10T00:27:53.812Z,91.70
2019-02-10T00:28:16.606Z,91.60
2019-02-10T00:28:39.486Z,91.70
2019-02-10T00:29:02.255Z,91.60
2019-02-10T00:29:25.504Z,91.60
2019-02-10T00:29:48.384Z,91.80
2019-02-10T00:30:11.264Z,91.90
2019-02-10T00:30:33.925Z,91.90
2019-02-10T00:30:57.065Z,92.10
2019-02-10T00:31:19.884Z,91.90
2019-02-10T00:31:42.743Z,91.80
2019-02-10T00:32:05.725Z,91.70
2019-02-10T00:32:28.904Z,91.90
2019-02-10T00:32:51.825Z,91.40
2019-02-10T00:33:14.623Z,91.50
2019-02-10T00:33:37.425Z,91.40
2019-02-10T00:34:00.325Z,91.20
2019-02-10T00:34:23.145Z,91.10
2019-02-10T00:34:46.044Z,91.00
2019-02-10T00:35:08.925Z,91.10
2019-02-10T00:35:31.845Z,91.10
2019-02-10T00:35:54.707Z,91.30
2019-02-10T00:36:17.504Z,91.40
2019-02-10T00:36:40.383Z,91.50
2019-02-10T00:37:03.051Z,91.20
2019-02-10T00:37:26.045Z,91.00
2019-02-10T00:37:49.125Z,91.00
2019-02-10T00:38:11.925Z,91.00
2019-02-10T00:38:34.764Z,91.20
2019-02-10T00:38:57.845Z,91.30
2019-02-10T00:39:20.747Z,91.20
2019-02-10T00:39:43.565Z,91.00
2019-02-10T00:40:06.465Z,91.40
2019-02-10T00:40:29.206Z,91.60
2019-02-10T00:40:52.306Z,91.80
2019-02-10T00:41:15.065Z,91.90
2019-02-10T00:41:37.905Z,91.80
2019-02-10T00:42:00.744Z,91.70
2019-02-10T00:42:23.624Z,91.80
2019-02-10T00:42:46.445Z,91.80
2019-02-10T00:43:09.325Z,91.70
2019-02-10T00:43:32.125Z,91.80
2019-02-10T00:43:55.064Z,91.50
2019-02-10T00:44:22.387Z,91.70
2019-02-10T00:44:45.225Z,92.10
2019-02-10T00:45:08.085Z,92.00
2019-02-10T00:45:30.865Z,92.00
2019-02-10T00:45:53.605Z,91.90
2019-02-10T00:46:16.527Z,91.70
2019-02-10T00:46:39.365Z,91.80
2019-02-10T00:47:02.200Z,91.40
2019-02-10T00:47:25.104Z,91.50
2019-02-10T00:47:47.825Z,91.80
2019-02-10T00:48:10.644Z,92.00
2019-02-10T00:48:33.585Z,91.90
2019-02-10T00:48:56.305Z,91.80
2019-02-10T00:49:19.024Z,92.00
2019-02-10T00:49:41.926Z,92.20
2019-02-10T00:50:05.024Z,92.10
2019-02-10T00:50:27.885Z,91.90
2019-02-10T00:50:50.666Z,91.70
2019-02-10T00:51:13.345Z,91.60
2019-02-10T00:51:36.196Z,91.70
2019-02-10T00:51:59.024Z,92.10
2019-02-10T00:52:21.865Z,92.30
2019-02-10T00:52:44.726Z,92.40
2019-02-10T00:53:07.425Z,92.40
2019-02-10T00:53:30.224Z,92.30
2019-02-10T00:53:53.067Z,92.50
2019-02-10T00:54:15.906Z,92.60
2019-02-10T00:54:38.643Z,92.20
2019-02-10T00:55:02.333Z,91.90
2019-02-10T00:55:25.245Z,91.70
2019-02-10T00:55:48.863Z,91.60
2019-02-10T00:56:11.977Z,91.50
2019-02-10T00:56:35.244Z,91.50
2019-02-10T00:56:58.045Z,92.00
2019-02-10T00:57:20.784Z,92.10
2019-02-10T00:57:43.604Z,92.40
2019-02-10T00:58:06.805Z,92.50
2019-02-10T00:58:29.625Z,92.50
2019-02-10T00:58:52.565Z,92.50
2019-02-10T00:59:17.584Z,92.80
2019-02-10T00:59:40.383Z,92.90
2019-02-10T01:00:03.082Z,92.90
2019-02-10T01:00:25.984Z,92.80
2019-02-10T01:00:48.824Z,93.40
2019-02-10T01:01:11.664Z,93.40
2019-02-10T01:01:34.486Z,93.40
2019-02-10T01:01:57.265Z,93.40
2019-02-10T01:02:20.086Z,93.30
2019-02-10T01:02:43.565Z,93.30
2019-02-10T01:03:06.344Z,93.40
2019-02-10T01:03:29.126Z,93.40
2019-02-10T01:03:51.925Z,93.80
2019-02-10T01:04:14.964Z,93.20
2019-02-10T01:04:37.726Z,93.00
2019-02-10T01:05:00.548Z,92.70
2019-02-10T01:05:23.384Z,92.70
2019-02-10T01:05:46.291Z,92.60
2019-02-10T01:06:09.185Z,92.50
2019-02-10T01:06:32.005Z,92.50
2019-02-10T01:06:55.205Z,92.50
2019-02-10T01:07:18.085Z,92.50
2019-02-10T01:07:41.105Z,92.60
2019-02-10T01:08:03.945Z,92.60
2019-02-10T01:08:28.584Z,92.60
2019-02-10T01:08:51.505Z,92.40
2019-02-10T01:09:14.287Z,92.30
2019-02-10T01:09:37.203Z,92.20
2019-02-10T01:10:00.269Z,92.10
2019-02-10T01:10:24.824Z,92.30
2019-02-10T01:10:47.627Z,92.00
2019-02-10T01:11:10.505Z,92.10
2019-02-10T01:11:33.405Z,92.20
2019-02-10T01:11:56.265Z,92.60
2019-02-10T01:12:19.164Z,92.70
2019-02-10T01:12:42.005Z,92.80
2019-02-10T01:13:04.845Z,92.80
2019-02-10T01:13:27.584Z,92.80
2019-02-10T01:13:50.465Z,92.80
2019-02-10T01:14:13.443Z,92.90
2019-02-10T01:14:36.305Z,93.00
2019-02-10T01:14:59.116Z,92.80
2019-02-10T01:15:22.484Z,92.70
2019-02-10T01:15:45.287Z,92.70
2019-02-10T01:16:08.086Z,92.90
2019-02-10T01:16:30.978Z,92.60
2019-02-10T01:16:57.525Z,92.70
2019-02-10T01:17:20.928Z,92.60
2019-02-10T01:17:43.903Z,92.60
2019-02-10T01:18:06.713Z,92.60
2019-02-10T01:18:29.507Z,92.60
2019-02-10T01:18:55.247Z,92.60
2019-02-10T01:19:18.611Z,92.50
2019-02-10T01:19:46.304Z,92.20
2019-02-10T01:20:11.404Z,92.00
2019-02-10T01:20:43.264Z,92.00
2019-02-10T01:21:07.624Z,92.40
2019-02-10T01:21:32.244Z,92.60
2019-02-10T01:21:55.804Z,92.70
2019-02-10T01:22:18.584Z,92.60
2019-02-10T01:22:46.326Z,92.50
2019-02-10T01:23:08.864Z,92.40
2019-02-10T01:23:31.670Z,92.30
2019-02-10T01:23:54.625Z,92.50
2019-02-10T01:24:18.045Z,92.30
2019-02-10T01:24:42.943Z,92.30
2019-02-10T01:25:08.945Z,92.40
2019-02-10T01:25:33.505Z,92.20
2019-02-10T01:25:56.306Z,92.20
2019-02-10T01:26:19.206Z,92.30
2019-02-10T01:26:42.024Z,92.50
2019-02-10T01:27:05.169Z,92.60
2019-02-10T01:27:27.984Z,91.90
2019-02-10T01:27:52.543Z,91.90
2019-02-10T01:28:15.466Z,91.70
2019-02-10T01:28:38.225Z,91.70
2019-02-10T01:29:01.405Z,91.60
2019-02-10T01:29:24.564Z,91.70
2019-02-10T01:29:48.864Z,92.00
2019-02-10T01:30:11.644Z,92.10
2019-02-10T01:30:37.649Z,92.10
2019-02-10T01:31:00.544Z,92.30
2019-02-10T01:31:23.284Z,92.20
2019-02-10T01:31:46.085Z,92.30
2019-02-10T01:32:08.884Z,92.30
2019-02-10T01:32:31.903Z,92.30
2019-02-10T01:32:54.885Z,92.30
2019-02-10T01:33:17.864Z,92.10
2019-02-10T01:33:40.714Z,92.10
2019-02-10T01:34:03.504Z,92.20
2019-02-10T01:34:26.244Z,92.20
2019-02-10T01:34:49.064Z,92.20
2019-02-10T01:35:12.085Z,92.30
2019-02-10T01:35:34.964Z,92.30
2019-02-10T01:35:57.845Z,92.30
2019-02-10T01:36:22.204Z,92.20
2019-02-10T01:36:49.705Z,92.20
2019-02-10T01:37:09.324Z,92.10
2019-02-10T01:37:32.644Z,92.00
2019-02-10T01:37:55.508Z,92.10
2019-02-10T01:38:19.313Z,92.20
2019-02-10T01:38:42.048Z,92.30
2019-02-10T01:39:06.424Z,92.20
2019-02-10T01:39:29.725Z,91.50
2019-02-10T01:39:54.213Z,91.40
2019-02-10T01:40:16.985Z,91.50
2019-02-10T01:40:39.866Z,91.70
2019-02-10T01:41:02.635Z,91.60
2019-02-10T01:41:25.867Z,91.70
2019-02-10T01:41:48.685Z,91.80
2019-02-10T01:42:11.702Z,91.30
2019-02-10T01:42:34.604Z,91.30
2019-02-10T01:42:57.432Z,91.10
2019-02-10T01:43:20.264Z,90.90
2019-02-10T01:43:43.025Z,90.80
2019-02-10T01:44:05.847Z,90.60
2019-02-10T01:44:28.603Z,90.30
2019-02-10T01:44:51.605Z,90.50
2019-02-10T01:45:14.428Z,90.70
2019-02-10T01:45:37.247Z,90.90
2019-02-10T01:46:00.244Z,91.00
2019-02-10T01:46:23.525Z,91.10
2019-02-10T01:46:46.264Z,91.50
2019-02-10T01:47:09.104Z,91.30
2019-02-10T01:47:31.945Z,91.20
2019-02-10T01:47:54.805Z,91.00
2019-02-10T01:48:17.502Z,90.80
2019-02-10T01:48:40.432Z,91.30
2019-02-10T01:49:03.164Z,91.50
2019-02-10T01:49:25.983Z,91.50
2019-02-10T01:49:48.785Z,91.10
2019-02-10T01:50:11.604Z,91.00
2019-02-10T01:50:34.475Z,90.90
2019-02-10T01:50:57.222Z,90.90
2019-02-10T01:51:20.204Z,90.50
2019-02-10T01:51:43.104Z,90.80
2019-02-10T01:52:05.945Z,90.60
2019-02-10T01:52:30.564Z,90.60
2019-02-10T01:52:53.343Z,90.30
2019-02-10T01:53:16.132Z,90.00
2019-02-10T01:53:38.925Z,90.30
2019-02-10T01:54:03.714Z,90.10
2019-02-10T01:54:27.423Z,90.00
2019-02-10T01:54:50.645Z,90.10
2019-02-10T01:55:13.425Z,90.00
2019-02-10T01:55:36.348Z,90.10
2019-02-10T01:55:59.143Z,90.60
2019-02-10T01:56:22.265Z,90.90
2019-02-10T01:56:45.246Z,91.10
2019-02-10T01:57:07.964Z,91.20
2019-02-10T01:57:30.805Z,91.10
2019-02-10T01:57:53.684Z,90.90
2019-02-10T01:58:16.543Z,90.90
2019-02-10T01:58:39.423Z,91.20
2019-02-10T01:59:02.083Z,91.10
2019-02-10T01:59:25.359Z,91.20
2019-02-10T01:59:48.204Z,90.90
2019-02-10T02:00:11.066Z,91.10
2019-02-10T02:00:33.964Z,90.90
2019-02-10T02:00:56.706Z,90.40
2019-02-10T02:01:19.804Z,90.10
2019-02-10T02:01:42.584Z,90.10
2019-02-10T02:02:05.312Z,90.10
2019-02-10T02:02:28.586Z,90.30
2019-02-10T02:02:51.345Z,90.60
2019-02-10T02:03:14.103Z,90.40
2019-02-10T02:03:38.964Z,90.40
2019-02-10T02:04:01.724Z,90.60
2019-02-10T02:04:24.425Z,90.60
2019-02-10T02:04:47.252Z,90.50
2019-02-10T02:05:12.067Z,90.50
2019-02-10T02:05:34.844Z,90.80
2019-02-10T02:05:57.643Z,91.00
2019-02-10T02:06:20.464Z,90.90
2019-02-10T02:06:43.444Z,91.00
2019-02-10T02:07:06.166Z,91.10
2019-02-10T02:07:29.065Z,91.20
2019-02-10T02:07:52.824Z,91.40
2019-02-10T02:08:15.644Z,91.50
2019-02-10T02:08:43.085Z,91.80
2019-02-10T02:09:10.043Z,91.50
2019-02-10T02:09:34.184Z,91.40
2019-02-10T02:09:59.413Z,91.20
2019-02-10T02:10:22.905Z,91.10
2019-02-10T02:10:49.983Z,91.00
2019-02-10T02:11:14.565Z,91.00
2019-02-10T02:11:38.985Z,91.30
2019-02-10T02:12:01.877Z,91.30
2019-02-10T02:12:25.284Z,91.50
2019-02-10T02:12:56.543Z,91.50
2019-02-10T02:13:25.723Z,91.40
2019-02-10T02:14:00.645Z,91.20
2019-02-10T02:14:31.124Z,91.00
2019-02-10T02:14:55.805Z,91.30
2019-02-10T02:15:22.144Z,91.60
2019-02-10T02:15:46.024Z,91.60
2019-02-10T02:16:08.824Z,91.60
2019-02-10T02:16:31.626Z,91.80
2019-02-10T02:16:54.404Z,91.60
2019-02-10T02:17:19.005Z,91.20
2019-02-10T02:17:41.964Z,91.40
2019-02-10T02:18:04.906Z,91.10
2019-02-10T02:18:27.805Z,91.10
2019-02-10T02:18:50.905Z,91.00
2019-02-10T02:19:13.802Z,90.90
2019-02-10T02:19:36.544Z,91.20
2019-02-10T02:20:00.690Z,91.30
2019-02-10T02:20:23.508Z,91.30
2019-02-10T02:20:46.327Z,91.20
2019-02-10T02:21:10.454Z,91.10
2019-02-10T02:21:33.847Z,91.10
2019-02-10T02:21:56.625Z,91.10
2019-02-10T02:22:20.885Z,91.30
2019-02-10T02:22:48.105Z,91.20
2019-02-10T02:23:12.244Z,91.30
2019-02-10T02:23:35.424Z,91.50
2019-02-10T02:24:00.045Z,91.40
2019-02-10T02:24:22.864Z,91.50
2019-02-10T02:24:45.623Z,91.50
2019-02-10T02:25:08.724Z,91.30
2019-02-10T02:25:31.545Z,91.40
2019-02-10T02:25:54.368Z,91.60
2019-02-10T02:26:17.206Z,91.60
2019-02-10T02:26:40.009Z,91.60
2019-02-10T02:27:02.715Z,91.30
2019-02-10T02:27:25.528Z,90.90
2019-02-10T02:27:49.424Z,91.00
2019-02-10T02:28:12.265Z,91.20
2019-02-10T02:28:36.625Z,91.10
2019-02-10T02:29:00.069Z,91.10
2019-02-10T02:29:22.964Z,90.90
2019-02-10T02:29:45.744Z,91.00
2019-02-10T02:30:08.484Z,90.90
2019-02-10T02:30:31.466Z,90.80
2019-02-10T02:30:54.247Z,90.80
2019-02-10T02:31:17.025Z,90.80
2019-02-10T02:31:39.915Z,90.80
2019-02-10T02:32:03.256Z,90.90
2019-02-10T02:32:26.027Z,90.90
2019-02-10T02:32:49.323Z,91.00
2019-02-10T02:33:12.104Z,90.70
2019-02-10T02:33:34.903Z,90.70
2019-02-10T02:33:57.746Z,90.60
2019-02-10T02:34:20.644Z,90.70
2019-02-10T02:34:43.423Z,90.80
2019-02-10T02:35:06.164Z,90.70
2019-02-10T02:35:30.285Z,90.50
2019-02-10T02:35:53.066Z,90.30
2019-02-10T02:36:16.046Z,90.30
2019-02-10T02:36:41.791Z,90.50
2019-02-10T02:37:09.045Z,90.20
2019-02-10T02:37:31.984Z,90.10
2019-02-10T02:37:55.184Z,90.00
2019-02-10T02:38:18.023Z,90.00
2019-02-10T02:38:42.707Z,89.80
2019-02-10T02:39:06.964Z,89.60
2019-02-10T02:39:34.764Z,89.60
2019-02-10T02:40:02.086Z,89.80
2019-02-10T02:40:24.641Z,89.80
2019-02-10T02:40:47.465Z,89.70
2019-02-10T02:41:11.103Z,89.30
2019-02-10T02:41:38.870Z,89.00
2019-02-10T02:41:58.624Z,89.20
2019-02-10T02:42:21.424Z,89.70
2019-02-10T02:42:45.637Z,89.60
2019-02-10T02:43:09.504Z,90.10
2019-02-10T02:43:32.284Z,90.00
2019-02-10T02:43:55.124Z,89.70
2019-02-10T02:44:28.244Z,89.50
2019-02-10T02:45:20.063Z,88.80
2019-02-10T02:46:04.305Z,90.10
2019-02-10T02:46:27.113Z,90.50
2019-02-10T02:46:50.038Z,90.40
2019-02-10T02:47:13.109Z,90.50
2019-02-10T02:47:35.829Z,90.50
2019-02-10T02:47:59.185Z,90.40
2019-02-10T02:48:22.444Z,90.40
2019-02-10T02:48:45.264Z,90.10
2019-02-10T02:49:08.079Z,90.20
2019-02-10T02:49:30.944Z,90.10
2019-02-10T02:49:53.666Z,90.20
2019-02-10T02:50:16.504Z,90.30
2019-02-10T02:50:39.333Z,89.80
2019-02-10T02:51:02.263Z,89.50
2019-02-10T02:51:25.105Z,89.00
2019-02-10T02:51:47.984Z,88.90
2019-02-10T02:52:10.877Z,90.20
2019-02-10T02:52:34.346Z,90.00
2019-02-10T02:52:57.124Z,89.40
2019-02-10T02:53:19.981Z,89.10
2019-02-10T02:53:42.838Z,88.90
2019-02-10T02:54:05.584Z,88.60
2019-02-10T02:54:28.394Z,88.50
2019-02-10T02:54:51.276Z,88.10
2019-02-10T02:55:14.165Z,88.30
2019-02-10T02:55:37.045Z,88.20
2019-02-10T02:55:59.904Z,88.10
2019-02-10T02:56:22.725Z,88.70
2019-02-10T02:56:45.727Z,88.50
2019-02-10T02:57:08.591Z,89.20
2019-02-10T02:57:38.984Z,89.10
2019-02-10T02:58:02.285Z,88.40
2019-02-10T02:58:25.084Z,90.00
2019-02-10T02:58:51.224Z,90.40
2019-02-10T02:59:15.768Z,90.30
2019-02-10T02:59:44.367Z,89.70
2019-02-10T03:00:10.134Z,89.20
2019-02-10T03:00:39.425Z,89.00
2019-02-10T03:01:07.187Z,89.40
2019-02-10T03:01:29.705Z,89.90
2019-02-10T03:01:52.528Z,90.00
2019-02-10T03:02:15.515Z,90.10
2019-02-10T03:03:07.937Z,90.10
2019-02-10T03:03:31.442Z,90.20
2019-02-10T03:04:02.233Z,90.50
2019-02-10T03:04:29.425Z,90.50
2019-02-10T03:04:52.925Z,90.40
2019-02-10T03:05:19.043Z,90.40
2019-02-10T03:05:45.948Z,90.40
2019-02-10T03:06:19.407Z,89.80
2019-02-10T03:06:47.944Z,89.70
2019-02-10T03:07:17.807Z,89.50
2019-02-10T03:07:35.245Z,89.40
2019-02-10T03:07:58.025Z,89.50
2019-02-10T03:08:20.845Z,89.20
2019-02-10T03:08:43.708Z,90.00
2019-02-10T03:09:06.642Z,89.60
2019-02-10T03:09:29.488Z,89.90
2019-02-10T03:09:52.253Z,89.10
2019-02-10T03:10:15.347Z,88.70
2019-02-10T03:10:38.145Z,88.50
2019-02-10T03:11:00.914Z,88.50
2019-02-10T03:11:23.775Z,88.50
2019-02-10T03:11:46.604Z,87.90
2019-02-10T03:12:09.361Z,87.80
2019-02-10T03:12:32.155Z,87.60
2019-02-10T03:12:54.929Z,88.30
2019-02-10T03:13:17.903Z,88.50
2019-02-10T03:13:40.765Z,88.50
2019-02-10T03:14:05.007Z,89.20
2019-02-10T03:14:27.768Z,89.60
2019-02-10T03:14:50.505Z,89.50
2019-02-10T03:15:13.249Z,89.70
2019-02-10T03:15:36.338Z,89.10
2019-02-10T03:15:59.148Z,88.10
2019-02-10T03:16:21.968Z,88.50
2019-02-10T03:16:44.968Z,90.10
2019-02-10T03:17:07.696Z,90.00
2019-02-10T03:17:30.570Z,90.10
2019-02-10T03:17:53.416Z,90.20
2019-02-10T03:18:16.149Z,90.00
2019-02-10T03:18:39.149Z,90.00
2019-02-10T03:19:01.928Z,90.70
2019-02-10T03:19:24.808Z,90.90
2019-02-10T03:19:47.646Z,90.90
2019-02-10T03:20:10.353Z,89.60
2019-02-10T03:20:33.108Z,89.30
2019-02-10T03:20:55.888Z,89.50
2019-02-10T03:21:18.687Z,89.70
2019-02-10T03:21:41.605Z,89.60
2019-02-10T03:22:04.323Z,89.80
2019-02-10T03:22:27.302Z,90.50
2019-02-10T03:22:50.150Z,89.20
2019-02-10T03:23:13.047Z,89.10
2019-02-10T03:23:35.816Z,89.10
2019-02-10T03:23:58.575Z,89.80
2019-02-10T03:24:21.854Z,89.30
2019-02-10T03:24:45.030Z,89.60
2019-02-10T03:25:10.735Z,89.60
2019-02-10T03:25:33.544Z,88.90
2019-02-10T03:25:56.369Z,89.80
2019-02-10T03:26:19.266Z,89.20
2019-02-10T03:26:42.086Z,88.80
2019-02-10T03:27:04.867Z,88.80
2019-02-10T03:27:27.706Z,87.80
2019-02-10T03:27:50.641Z,87.90
2019-02-10T03:28:13.515Z,87.90
2019-02-10T03:28:36.267Z,87.50
2019-02-10T03:28:59.214Z,87.80
2019-02-10T03:29:21.953Z,87.60
2019-02-10T03:29:44.747Z,87.20
2019-02-10T03:30:07.759Z,87.20
2019-02-10T03:30:30.669Z,87.20
2019-02-10T03:30:53.650Z,87.00
2019-02-10T03:31:16.364Z,86.70
2019-02-10T03:31:39.113Z,86.70
2019-02-10T03:32:01.932Z,86.40
2019-02-10T03:32:24.808Z,86.60
2019-02-10T03:32:47.654Z,86.70
2019-02-10T03:33:10.882Z,87.10
2019-02-10T03:33:33.709Z,86.90
2019-02-10T03:33:56.568Z,86.60
2019-02-10T03:34:19.314Z,87.10
2019-02-10T03:34:42.147Z,87.20
2019-02-10T03:35:05.129Z,87.20
2019-02-10T03:35:27.967Z,87.40
2019-02-10T03:35:50.946Z,87.20
2019-02-10T03:36:13.759Z,87.10
2019-02-10T03:36:36.525Z,87.20
2019-02-10T03:36:59.326Z,87.30
2019-02-10T03:37:27.252Z,87.10
2019-02-10T03:37:46.626Z,87.10
2019-02-10T03:38:09.458Z,86.80
2019-02-10T03:38:32.205Z,86.50
2019-02-10T03:38:54.965Z,86.20
2019-02-10T03:39:17.815Z,85.50
2019-02-10T03:39:40.626Z,86.40
2019-02-10T03:40:03.400Z,86.60
2019-02-10T03:40:26.405Z,86.40
2019-02-10T03:40:49.385Z,87.10
2019-02-10T03:41:12.380Z,87.00
2019-02-10T03:41:35.145Z,86.90
2019-02-10T03:41:58.484Z,87.00
2019-02-10T03:42:21.325Z,86.80
2019-02-10T03:42:44.085Z,87.10
2019-02-10T03:43:07.345Z,87.30
2019-02-10T03:43:30.093Z,87.50
2019-02-10T03:43:52.967Z,87.90
2019-02-10T03:44:15.806Z,88.40
2019-02-10T03:44:38.733Z,87.00
2019-02-10T03:45:01.528Z,86.70
2019-02-10T03:45:24.465Z,86.60
2019-02-10T03:45:47.307Z,88.10
2019-02-10T03:46:11.128Z,88.60
2019-02-10T03:46:33.992Z,88.40
2019-02-10T03:46:56.729Z,87.60
2019-02-10T03:47:21.911Z,88.00
2019-02-10T03:47:44.067Z,88.00
2019-02-10T03:48:07.431Z,88.30
2019-02-10T03:48:30.269Z,88.50
2019-02-10T03:48:53.027Z,88.30
2019-02-10T03:49:15.935Z,88.00
2019-02-10T03:49:38.626Z,87.80
2019-02-10T03:50:01.437Z,87.60
2019-02-10T03:50:24.247Z,87.60
2019-02-10T03:50:47.127Z,87.50
2019-02-10T03:51:09.927Z,87.00
2019-02-10T03:51:33.256Z,86.40
2019-02-10T03:51:56.086Z,85.60
2019-02-10T03:52:18.943Z,85.60
2019-02-10T03:52:49.985Z,85.80
2019-02-10T03:53:12.695Z,85.70
2019-02-10T03:53:36.889Z,85.60
2019-02-10T03:54:04.951Z,85.50
2019-02-10T03:54:27.729Z,85.30
2019-02-10T03:54:51.713Z,85.40
2019-02-10T03:55:14.651Z,85.60
2019-02-10T03:55:44.558Z,85.80
2019-02-10T03:56:12.727Z,85.50
2019-02-10T03:56:37.488Z,85.50
2019-02-10T03:57:03.772Z,85.60
2019-02-10T03:57:38.886Z,85.40
2019-02-10T03:58:06.822Z,85.20
2019-02-10T03:58:31.813Z,85.00
2019-02-10T03:58:57.807Z,84.50
2019-02-10T03:59:31.068Z,84.60
2019-02-10T03:59:57.417Z,84.70
2019-02-10T04:35:19.304Z,90.10
2019-02-10T04:35:42.266Z,90.30
2019-02-10T04:36:05.103Z,90.20
2019-02-10T04:36:27.946Z,90.20
2019-02-10T04:36:50.884Z,90.30
2019-02-10T04:37:13.986Z,90.60
2019-02-10T04:37:44.951Z,90.70
2019-02-10T04:38:01.317Z,90.80
2019-02-10T04:38:24.302Z,90.80
2019-02-10T04:38:47.205Z,90.90
2019-02-10T04:39:10.345Z,90.90
2019-02-10T04:39:33.226Z,90.90
2019-02-10T04:39:56.144Z,90.70
2019-02-10T04:40:19.027Z,90.10
2019-02-10T04:40:41.985Z,90.40
2019-02-10T04:41:08.563Z,90.20
2019-02-10T04:41:31.653Z,90.10
2019-02-10T04:41:54.626Z,89.20
2019-02-10T04:42:19.064Z,90.00
2019-02-10T04:42:43.945Z,90.30
2019-02-10T04:43:06.807Z,90.40
2019-02-10T04:43:29.766Z,90.30
2019-02-10T04:43:52.693Z,90.20
2019-02-10T04:44:15.547Z,90.50
2019-02-10T04:44:39.324Z,90.30
2019-02-10T04:45:02.156Z,90.10
2019-02-10T04:45:24.985Z,90.40
2019-02-10T04:45:48.245Z,90.30
2019-02-10T04:46:11.064Z,90.20
2019-02-10T04:46:33.965Z,90.40
2019-02-10T04:46:58.023Z,90.50
2019-02-10T04:47:21.004Z,90.50
2019-02-10T04:47:43.805Z,90.50
2019-02-10T04:48:06.606Z,90.60
2019-02-10T04:48:29.445Z,90.60
2019-02-10T04:48:52.266Z,90.50
2019-02-10T04:49:15.025Z,90.30
2019-02-10T04:49:38.226Z,90.20
2019-02-10T04:50:01.065Z,90.20
2019-02-10T04:50:23.866Z,90.30
2019-02-10T04:50:46.764Z,90.40
2019-02-10T04:51:12.106Z,90.30
2019-02-10T04:51:35.024Z,90.20
2019-02-10T04:51:58.044Z,90.20
2019-02-10T04:52:23.604Z,90.40
2019-02-10T04:52:46.384Z,90.50
2019-02-10T04:53:09.383Z,90.40
2019-02-10T04:53:32.525Z,90.40
2019-02-10T04:53:55.506Z,90.20
2019-02-10T04:54:18.433Z,90.20
2019-02-10T04:54:42.484Z,90.20
2019-02-10T04:55:06.391Z,90.50
2019-02-10T04:55:29.193Z,90.40
2019-02-10T04:55:54.473Z,90.40
2019-02-10T04:56:17.204Z,90.60
2019-02-10T04:56:40.084Z,90.90
2019-02-10T04:57:14.144Z,90.60
2019-02-10T04:57:38.186Z,90.40
2019-02-10T04:58:02.784Z,90.50
2019-02-10T04:58:25.708Z,90.60
2019-02-10T04:58:48.465Z,90.70
2019-02-10T04:59:11.343Z,90.80
2019-02-10T04:59:34.204Z,90.80
2019-02-10T04:59:57.052Z,90.80
2019-02-10T05:00:19.912Z,90.80
2019-02-10T05:00:43.006Z,90.80
2019-02-10T05:01:09.984Z,91.20
2019-02-10T05:01:32.825Z,90.90
2019-02-10T05:01:55.608Z,90.90
2019-02-10T05:02:23.404Z,90.90
2019-02-10T05:02:47.246Z,91.00
2019-02-10T05:03:13.066Z,91.00
2019-02-10T05:03:38.805Z,90.90
2019-02-10T05:04:06.133Z,90.90
2019-02-10T05:04:50.024Z,91.00
2019-02-10T05:05:19.485Z,91.00
2019-02-10T05:05:43.206Z,90.40
2019-02-10T05:06:11.043Z,90.20
2019-02-10T05:06:39.751Z,90.10
2019-02-10T05:07:05.547Z,90.60
2019-02-10T05:07:33.468Z,90.80
2019-02-10T05:08:02.451Z,90.60
2019-02-10T05:08:26.871Z,90.60
2019-02-10T05:08:51.964Z,90.50
2019-02-10T05:09:14.849Z,90.70
2019-02-10T05:09:40.874Z,90.80
2019-02-10T05:10:08.146Z,90.60
2019-02-10T05:10:32.344Z,90.70
2019-02-10T05:10:56.865Z,90.60
2019-02-10T05:11:23.166Z,90.80
2019-02-10T05:11:46.345Z,89.80
2019-02-10T05:12:11.503Z,90.40
2019-02-10T05:12:34.384Z,90.30
2019-02-10T05:13:00.044Z,90.30
2019-02-10T05:13:26.404Z,90.30
2019-02-10T05:13:52.927Z,90.30
2019-02-10T05:14:14.168Z,90.50
2019-02-10T05:14:40.984Z,90.50
2019-02-10T05:15:03.744Z,90.70
2019-02-10T05:15:26.625Z,90.70
2019-02-10T05:15:51.144Z,90.90
2019-02-10T05:16:14.004Z,91.00
2019-02-10T05:16:36.805Z,90.90
2019-02-10T05:16:59.752Z,90.70
2019-02-10T05:17:22.632Z,90.50
2019-02-10T05:17:47.025Z,90.50
2019-02-10T05:18:09.847Z,90.30
2019-02-10T05:18:32.685Z,90.20
2019-02-10T05:18:55.527Z,90.30
2019-02-10T05:19:18.374Z,90.50
2019-02-10T05:19:41.545Z,90.60
2019-02-10T05:20:04.404Z,90.70
2019-02-10T05:20:27.366Z,90.80
2019-02-10T05:20:52.223Z,90.80
2019-02-10T05:21:14.957Z,90.70
2019-02-10T05:21:38.026Z,90.80
2019-02-10T05:22:00.865Z,90.90
2019-02-10T05:22:23.714Z,90.80
2019-02-10T05:22:46.505Z,91.10
2019-02-10T05:23:09.229Z,91.00
2019-02-10T05:23:32.145Z,91.10
2019-02-10T05:24:03.584Z,90.90
2019-02-10T05:24:24.105Z,90.90
2019-02-10T05:24:47.066Z,91.00
2019-02-10T05:25:09.906Z,91.00
2019-02-10T05:25:33.173Z,91.10
2019-02-10T05:25:55.904Z,91.20
2019-02-10T05:26:18.793Z,90.90
2019-02-10T05:26:41.684Z,91.10
2019-02-10T05:27:05.065Z,91.20
2019-02-10T05:27:29.168Z,91.20
2019-02-10T05:27:51.926Z,91.30
2019-02-10T05:28:14.924Z,90.90
2019-02-10T05:28:37.907Z,91.20
2019-02-10T05:29:00.792Z,91.30
2019-02-10T05:29:28.106Z,91.20
2019-02-10T05:29:52.486Z,91.10
2019-02-10T05:30:17.225Z,91.30
2019-02-10T05:30:41.367Z,91.60
2019-02-10T05:31:08.538Z,91.60
2019-02-10T05:31:34.107Z,91.50
2019-02-10T05:31:56.765Z,91.40
2019-02-10T05:32:21.345Z,91.30
2019-02-10T05:32:44.305Z,91.20
2019-02-10T05:33:07.194Z,91.30
2019-02-10T05:33:30.144Z,91.20
2019-02-10T05:33:52.965Z,91.20
2019-02-10T05:34:16.427Z,91.20
2019-02-10T05:34:39.266Z,91.20
2019-02-10T05:35:02.414Z,91.20
2019-02-10T05:35:25.305Z,91.10
2019-02-10T05:35:48.525Z,91.20
2019-02-10T05:36:11.344Z,91.10
2019-02-10T05:36:34.146Z,91.00
2019-02-10T05:36:56.966Z,91.10
2019-02-10T05:37:19.785Z,91.00
2019-02-10T05:37:42.504Z,91.00
2019-02-10T05:38:05.646Z,91.10
2019-02-10T05:38:28.905Z,90.90
2019-02-10T05:38:51.825Z,90.50
2019-02-10T05:39:15.047Z,90.80
2019-02-10T05:39:37.829Z,90.70